createdAt,value
2022-12-15T07:41:54.016Z,14.32
2022-12-15T07:42:58.671Z,13.92
2022-12-15T07:44:03.769Z,12.59
2022-12-15T07:45:07.124Z,12.04
2022-12-15T07:46:10.927Z,12.29
2022-12-15T07:47:14.244Z,12.42
2022-12-15T07:48:17.445Z,13.54
2022-12-15T07:49:19.980Z,13.02
2022-12-15T07:50:25.395Z,12.37
2022-12-15T07:51:28.910Z,13.37
2022-12-15T07:52:32.291Z,13.11
2022-12-15T07:55:13.002Z,13.89
2022-12-15T07:56:18.364Z,14.29
2022-12-15T07:57:22.034Z,13.09
2022-12-15T07:58:29.367Z,13.34
2022-12-15T07:59:34.094Z,12.53
2022-12-15T08:00:37.792Z,13.21
2022-12-15T08:01:44.973Z,13.48
2022-12-15T08:02:50.116Z,13.74
2022-12-15T08:03:53.724Z,13.50
2022-12-15T08:04:57.393Z,13.57
2022-12-15T08:06:10.884Z,12.27
2022-12-15T08:07:14.365Z,11.76
2022-12-15T08:08:20.030Z,13.14
2022-12-15T08:09:23.324Z,13.04
2022-12-15T08:10:26.085Z,12.57
2022-12-15T08:11:36.506Z,13.01
2022-12-15T08:12:41.136Z,14.08
2022-12-15T08:14:04.137Z,13.57
2022-12-15T08:14:51.175Z,13.64
2022-12-15T08:15:56.861Z,13.73
2022-12-15T08:17:02.597Z,12.38
2022-12-15T08:18:06.841Z,13.59
2022-12-15T08:19:13.082Z,13.35
2022-12-15T08:20:19.659Z,13.64
2022-12-15T08:21:22.944Z,13.81
2022-12-15T08:22:26.542Z,13.09
2022-12-15T08:23:30.324Z,14.28
2022-12-15T08:24:33.082Z,12.51
2022-12-15T08:25:36.950Z,15.01
2022-12-15T08:26:41.812Z,12.51
2022-12-15T08:27:45.669Z,13.06
2022-12-15T08:28:49.598Z,12.59
2022-12-15T08:29:54.415Z,13.58
2022-12-15T08:31:08.816Z,14.94
2022-12-15T08:32:13.427Z,14.77
2022-12-15T08:33:15.923Z,13.92
2022-12-15T08:34:19.253Z,11.59
2022-12-15T08:35:54.513Z,12.23
2022-12-15T08:36:28.412Z,12.46
2022-12-15T08:37:34.226Z,14.28
2022-12-15T08:38:41.699Z,14.68
2022-12-15T08:39:45.160Z,16.12
2022-12-15T08:40:50.136Z,15.84
2022-12-15T08:41:53.974Z,16.79
2022-12-15T08:42:59.114Z,14.20
2022-12-15T08:44:02.825Z,14.34
2022-12-15T08:45:07.646Z,12.59
2022-12-15T08:46:10.681Z,12.65
2022-12-15T08:47:13.224Z,12.84
2022-12-15T08:48:18.062Z,11.72
2022-12-15T08:49:24.682Z,12.11
2022-12-15T08:50:27.734Z,10.94
2022-12-15T08:51:35.475Z,11.28
2022-12-15T08:52:41.222Z,13.06
2022-12-15T08:53:46.935Z,13.16
2022-12-15T08:54:49.844Z,15.39
2022-12-15T08:55:54.297Z,13.01
2022-12-15T08:56:57.821Z,13.51
2022-12-15T08:58:02.151Z,13.28
2022-12-15T08:59:05.511Z,12.38
2022-12-15T09:00:11.027Z,12.84
2022-12-15T09:01:23.474Z,11.46
2022-12-15T09:02:27.152Z,13.12
2022-12-15T09:03:31.577Z,13.61
2022-12-15T09:04:34.877Z,11.79
2022-12-15T09:05:40.364Z,11.34
2022-12-15T09:06:50.569Z,10.84
2022-12-15T09:08:01.677Z,11.54
2022-12-15T09:09:05.830Z,10.61
2022-12-15T09:10:09.933Z,10.88
2022-12-15T09:11:13.020Z,10.33
2022-12-15T09:12:17.387Z,11.44
2022-12-15T09:13:22.572Z,9.71
2022-12-15T09:14:29.495Z,10.84
2022-12-15T09:16:06.982Z,11.33
2022-12-15T09:16:37.057Z,10.57
2022-12-15T09:17:40.655Z,9.89
2022-12-15T09:18:53.236Z,9.63
2022-12-15T09:19:57.720Z,9.96
2022-12-15T09:21:09.533Z,12.91
2022-12-15T09:22:12.868Z,10.26
2022-12-15T09:23:17.380Z,10.12
2022-12-15T09:24:30.569Z,11.44
2022-12-15T09:25:24.810Z,10.94
2022-12-15T09:26:29.787Z,10.22
2022-12-15T09:27:33.797Z,10.98
2022-12-15T09:28:39.805Z,9.91
2022-12-15T09:29:42.695Z,9.22
2022-12-15T09:30:47.194Z,9.28
2022-12-15T09:31:49.858Z,10.63
2022-12-15T09:32:53.692Z,12.42
2022-12-15T09:34:01.059Z,10.25
2022-12-15T09:35:04.994Z,9.91
2022-12-15T09:36:11.519Z,10.32
2022-12-15T09:37:15.068Z,11.14
2022-12-15T09:38:18.738Z,10.67
2022-12-15T09:39:22.396Z,9.64
2022-12-15T09:40:25.800Z,10.66
2022-12-15T09:41:31.709Z,10.70
2022-12-15T09:42:36.289Z,10.73
2022-12-15T09:43:47.478Z,11.28
2022-12-15T09:47:22.443Z,10.46
2022-12-15T09:48:29.877Z,10.70
2022-12-15T09:49:45.853Z,11.49
2022-12-15T09:50:54.424Z,10.66
2022-12-15T09:52:16.468Z,10.13
2022-12-15T09:53:53.542Z,10.58
2022-12-15T09:54:33.343Z,10.21
2022-12-15T09:55:37.109Z,11.99
2022-12-15T09:58:14.248Z,12.28
2022-12-15T09:59:36.862Z,10.99
2022-12-15T10:00:59.200Z,11.56
2022-12-15T10:02:18.439Z,10.89
2022-12-15T10:03:44.914Z,10.62
2022-12-15T10:05:06.532Z,11.93
2022-12-15T10:06:50.757Z,12.18
2022-12-15T10:07:54.575Z,10.03
2022-12-15T10:09:03.413Z,12.28
2022-12-15T10:10:13.975Z,11.45
2022-12-15T10:11:50.384Z,11.91
2022-12-15T10:13:01.306Z,10.99
2022-12-15T10:14:34.881Z,10.72
2022-12-15T10:15:59.625Z,10.50
2022-12-15T10:17:16.358Z,12.26
2022-12-15T10:18:24.541Z,11.38
2022-12-15T10:19:49.944Z,10.67
2022-12-15T10:20:56.072Z,13.02
2022-12-15T10:21:59.934Z,11.59
2022-12-15T10:23:10.621Z,11.44
2022-12-15T10:26:16.996Z,12.70
2022-12-15T10:27:37.873Z,13.26
2022-12-15T10:29:07.374Z,11.26
2022-12-15T10:30:14.345Z,13.10
2022-12-15T10:31:29.045Z,13.29
2022-12-15T10:32:42.643Z,11.29
2022-12-15T10:33:47.087Z,10.92
2022-12-15T10:34:48.161Z,12.27
2022-12-15T10:35:57.011Z,13.56
2022-12-15T10:37:01.017Z,11.41
2022-12-15T10:38:11.433Z,12.27
2022-12-15T10:39:18.387Z,13.39
2022-12-15T10:40:24.663Z,12.12
2022-12-15T10:41:30.814Z,12.18
2022-12-15T10:42:40.261Z,13.74
2022-12-15T10:44:56.579Z,11.57
2022-12-15T10:46:23.370Z,11.37
2022-12-15T10:47:32.631Z,11.39
2022-12-15T10:48:37.532Z,11.68
2022-12-15T10:49:42.970Z,11.13
2022-12-15T10:50:50.210Z,11.46
2022-12-15T10:51:59.999Z,11.18
2022-12-15T10:53:11.234Z,10.88
2022-12-15T10:54:18.000Z,11.48
2022-12-15T10:55:40.197Z,11.47
2022-12-15T10:56:57.691Z,10.38
2022-12-15T10:58:04.651Z,11.25
2022-12-15T10:59:23.913Z,11.31
2022-12-15T11:00:30.454Z,12.02
2022-12-15T11:01:35.916Z,10.08
2022-12-15T11:02:42.811Z,10.36
2022-12-15T11:03:46.242Z,9.88
2022-12-15T11:04:59.036Z,10.86
2022-12-15T11:06:01.730Z,9.56
2022-12-15T11:07:10.776Z,10.77
2022-12-15T11:08:17.898Z,10.59
2022-12-15T11:09:27.795Z,10.17
2022-12-15T11:10:34.561Z,9.62
2022-12-15T15:03:10.726Z,11.59
2022-12-15T16:51:13.071Z,13.60
2022-12-15T16:52:24.119Z,14.94
2022-12-15T16:53:34.045Z,16.92
2022-12-15T16:54:39.942Z,14.11
2022-12-15T16:55:44.118Z,12.94
2022-12-15T16:56:47.804Z,14.05
2022-12-15T16:57:56.399Z,15.21
2022-12-15T16:59:30.905Z,15.28
2022-12-15T17:00:10.259Z,13.64
2022-12-15T17:01:13.576Z,15.81
2022-12-15T17:02:32.443Z,16.88
2022-12-15T17:03:36.223Z,17.27
2022-12-15T17:04:39.917Z,16.38
2022-12-15T17:05:47.957Z,15.04
2022-12-15T17:06:53.287Z,17.74
2022-12-15T17:07:59.183Z,16.64
2022-12-15T17:09:03.906Z,15.23
2022-12-15T17:10:08.120Z,17.24
2022-12-15T17:11:24.023Z,14.96
2022-12-15T17:12:28.449Z,14.56
2022-12-15T17:13:41.932Z,18.04
2022-12-15T17:14:40.743Z,15.56
2022-12-15T17:15:45.102Z,15.98
2022-12-15T17:16:48.753Z,16.07
2022-12-15T17:17:54.852Z,15.32
2022-12-15T17:20:33.205Z,18.24
2022-12-15T17:21:30.884Z,19.49
2022-12-15T17:22:33.830Z,15.74
2022-12-15T17:23:37.835Z,15.49
2022-12-15T17:24:45.161Z,15.68
2022-12-15T17:26:19.963Z,14.48
2022-12-15T17:26:58.976Z,18.26
2022-12-15T17:28:02.548Z,15.37
2022-12-15T17:29:25.133Z,17.82
2022-12-15T17:30:29.913Z,15.58
2022-12-15T17:31:36.444Z,15.24
2022-12-15T17:32:40.900Z,15.69
2022-12-15T17:33:44.284Z,14.98
2022-12-15T17:34:48.097Z,14.36
2022-12-15T17:35:58.437Z,15.11
2022-12-15T17:37:06.848Z,15.09
2022-12-15T17:38:15.152Z,16.27
2022-12-15T17:39:21.880Z,15.19
2022-12-15T17:40:25.789Z,14.43
2022-12-15T17:41:57.903Z,16.31
2022-12-15T17:42:33.601Z,15.15
2022-12-15T17:43:36.976Z,15.34
2022-12-15T17:44:41.969Z,15.22
2022-12-15T17:45:46.068Z,15.14
2022-12-15T17:46:50.740Z,15.10
2022-12-15T17:47:54.760Z,15.28
2022-12-15T17:48:59.920Z,15.58
2022-12-15T17:50:03.524Z,15.85
2022-12-15T17:51:18.169Z,17.00
2022-12-15T17:52:29.445Z,16.02
2022-12-15T17:53:33.740Z,16.59
2022-12-15T17:54:38.075Z,14.75
2022-12-15T17:55:41.784Z,14.32
2022-12-15T17:56:47.737Z,14.45
2022-12-15T17:57:52.091Z,17.77
2022-12-15T17:58:56.638Z,15.52
2022-12-15T18:00:00.921Z,14.41
2022-12-15T18:01:03.847Z,15.41
2022-12-15T18:02:10.132Z,16.09
2022-12-15T18:03:16.043Z,14.67
2022-12-15T18:04:19.953Z,16.61
2022-12-15T18:05:26.483Z,16.09
2022-12-15T18:06:30.095Z,16.26
2022-12-15T18:07:35.460Z,14.47
2022-12-15T18:08:38.480Z,16.76
2022-12-15T18:09:44.773Z,17.12
2022-12-15T18:10:51.172Z,15.44
2022-12-15T18:11:57.382Z,15.61
2022-12-15T18:13:01.304Z,14.78
2022-12-15T18:14:08.060Z,15.72
2022-12-15T18:15:15.550Z,16.03
2022-12-15T18:16:18.571Z,15.18
2022-12-15T18:17:22.639Z,15.43
2022-12-15T18:18:26.623Z,13.99
2022-12-15T18:19:34.853Z,15.91
2022-12-15T18:20:37.463Z,14.60
2022-12-15T18:21:42.819Z,15.31
2022-12-15T18:22:48.552Z,14.74
2022-12-15T18:23:51.938Z,14.21
2022-12-15T18:24:55.481Z,14.35
2022-12-15T18:26:03.135Z,14.75
2022-12-15T18:27:19.448Z,14.27
2022-12-15T18:28:28.978Z,15.26
2022-12-15T18:29:32.350Z,15.03
2022-12-15T18:30:37.629Z,14.70
2022-12-15T18:31:42.377Z,16.17
2022-12-15T18:32:48.476Z,14.76
2022-12-15T18:33:54.987Z,16.42
2022-12-15T18:35:02.661Z,15.77
2022-12-15T18:36:08.151Z,14.71
2022-12-15T18:38:30.968Z,15.93
2022-12-15T18:39:34.813Z,14.83
2022-12-15T18:40:39.369Z,14.89
2022-12-15T18:41:42.906Z,15.10
2022-12-15T18:42:47.633Z,16.63
2022-12-15T18:43:51.521Z,16.13
2022-12-15T18:44:56.990Z,13.91
2022-12-15T18:46:01.577Z,16.85
2022-12-15T18:47:07.783Z,16.26
2022-12-15T18:48:17.865Z,14.22
2022-12-15T18:49:22.278Z,15.97
2022-12-15T18:50:26.862Z,14.12
2022-12-15T18:51:30.850Z,16.88
2022-12-15T18:52:35.098Z,13.87
2022-12-15T18:53:40.614Z,14.43
2022-12-15T18:54:47.426Z,13.36
2022-12-15T18:55:50.917Z,15.18
2022-12-15T18:56:55.516Z,14.63
2022-12-15T18:58:01.062Z,15.49
2022-12-15T18:59:08.311Z,15.84
2022-12-15T19:00:19.646Z,15.21
2022-12-15T19:01:23.263Z,16.82
2022-12-15T19:02:26.982Z,15.11
2022-12-15T19:03:32.555Z,17.08
2022-12-15T19:04:36.194Z,14.53
2022-12-15T19:05:39.763Z,15.58
2022-12-15T19:06:43.966Z,17.17
2022-12-15T19:07:47.791Z,15.25
2022-12-15T19:08:52.197Z,14.95
2022-12-15T19:09:55.746Z,15.87
2022-12-15T19:11:17.316Z,15.38
2022-12-15T19:12:21.004Z,14.54
2022-12-15T19:13:27.187Z,13.94
2022-12-15T19:14:43.433Z,13.40
2022-12-15T19:15:48.368Z,15.81
2022-12-15T19:17:11.351Z,16.79
2022-12-15T19:18:35.419Z,16.78
2022-12-15T19:19:57.796Z,15.67
2022-12-15T19:21:25.712Z,14.78
2022-12-15T19:22:30.429Z,15.20
2022-12-15T19:23:33.764Z,17.18
2022-12-15T19:24:55.510Z,17.13
2022-12-15T19:25:58.362Z,17.68
2022-12-15T19:27:02.872Z,16.46
2022-12-15T19:28:10.107Z,17.05
2022-12-15T19:29:18.356Z,17.35
2022-12-15T19:30:21.564Z,18.24
2022-12-15T19:31:26.455Z,18.41
2022-12-15T19:32:30.056Z,15.67
2022-12-15T19:33:34.241Z,18.56
2022-12-15T19:34:38.492Z,16.99
2022-12-15T19:35:47.154Z,17.36
2022-12-15T19:36:50.674Z,19.79
2022-12-15T19:37:57.189Z,17.82
2022-12-15T19:39:00.664Z,18.38
2022-12-15T19:40:06.523Z,19.22
2022-12-15T19:41:13.660Z,18.42
2022-12-15T19:42:21.257Z,21.93
2022-12-15T19:43:25.238Z,16.81
2022-12-15T19:44:29.000Z,19.15
2022-12-15T19:45:32.398Z,17.94
2022-12-15T19:46:36.151Z,19.40
2022-12-15T19:47:39.220Z,16.83
2022-12-15T19:48:46.169Z,17.77
2022-12-15T19:49:49.428Z,20.14
2022-12-15T19:50:55.117Z,19.81
2022-12-15T19:51:58.704Z,20.41
2022-12-15T19:53:05.492Z,18.64
2022-12-15T19:54:17.887Z,19.23
2022-12-15T19:55:26.107Z,18.63
2022-12-15T19:56:29.916Z,20.31
2022-12-15T19:57:36.531Z,20.66
2022-12-15T19:58:39.449Z,21.37
2022-12-15T19:59:45.277Z,21.03
2022-12-15T20:00:50.186Z,19.20
2022-12-15T20:01:53.887Z,19.28
2022-12-15T20:02:59.239Z,19.12
2022-12-15T20:04:02.962Z,19.86
2022-12-15T20:05:06.788Z,20.07
2022-12-15T20:06:19.608Z,20.47
2022-12-15T20:07:28.507Z,22.30
2022-12-15T20:08:38.408Z,21.94
2022-12-15T20:09:41.845Z,18.77
2022-12-15T20:10:48.811Z,20.21
2022-12-15T20:11:52.384Z,20.51
2022-12-15T20:12:55.184Z,21.31
2022-12-15T20:13:59.611Z,22.00
2022-12-15T20:15:14.019Z,20.64
2022-12-15T20:16:21.074Z,22.14
2022-12-15T20:17:26.880Z,18.98
2022-12-15T20:18:29.573Z,16.73
2022-12-15T20:19:38.162Z,20.12
2022-12-15T20:20:46.046Z,17.64
2022-12-15T20:21:50.591Z,18.06
2022-12-15T20:22:56.154Z,20.74
2022-12-15T20:24:09.226Z,19.59
2022-12-15T20:25:17.869Z,19.36
2022-12-15T20:26:30.376Z,18.99
2022-12-15T20:27:33.962Z,20.27
2022-12-15T20:28:37.395Z,19.12
2022-12-15T20:29:41.506Z,19.42
2022-12-15T20:30:45.996Z,21.17
2022-12-15T20:31:50.332Z,19.73
2022-12-15T20:32:55.216Z,20.45
2022-12-15T20:33:59.484Z,18.20
2022-12-15T20:35:03.175Z,20.08
2022-12-15T20:36:16.352Z,20.68
2022-12-15T20:37:27.414Z,17.86
2022-12-15T20:38:33.974Z,19.62
2022-12-15T20:39:38.603Z,17.40
2022-12-15T20:40:43.753Z,17.65
2022-12-15T20:41:49.192Z,19.46
2022-12-15T20:42:54.682Z,17.47
2022-12-15T20:44:00.276Z,17.52
2022-12-15T20:45:03.640Z,17.83
2022-12-15T20:46:11.513Z,18.63
2022-12-15T20:47:26.946Z,17.58
2022-12-15T20:48:32.000Z,18.34
2022-12-15T20:49:36.426Z,18.39
2022-12-15T20:50:43.660Z,17.26
2022-12-15T20:51:48.930Z,19.58
2022-12-15T20:52:54.908Z,17.06
2022-12-15T20:54:01.345Z,19.05
2022-12-15T20:55:08.182Z,19.26
2022-12-15T20:56:12.869Z,19.30
2022-12-15T20:57:16.602Z,18.68
2022-12-15T20:58:20.343Z,17.29
2022-12-15T20:59:24.748Z,19.22
2022-12-15T21:00:29.186Z,17.56
2022-12-15T21:02:50.321Z,19.77
2022-12-15T21:03:56.643Z,17.84
2022-12-15T21:04:59.063Z,20.73
2022-12-15T21:06:04.951Z,18.59
2022-12-15T21:07:12.298Z,17.99
2022-12-15T21:08:21.531Z,18.37
2022-12-15T21:09:25.679Z,17.46
2022-12-15T21:10:28.288Z,20.87
2022-12-15T21:11:33.654Z,19.30
2022-12-15T21:12:37.542Z,17.11
2022-12-15T21:13:41.803Z,19.52
2022-12-15T21:14:45.092Z,20.20
2022-12-15T21:15:50.402Z,18.04
2022-12-15T21:16:53.186Z,19.02
2022-12-15T21:18:29.222Z,17.36
2022-12-15T21:19:23.113Z,19.31
2022-12-15T21:20:14.644Z,17.28
2022-12-15T21:22:32.575Z,17.48
2022-12-15T21:23:39.718Z,17.65
2022-12-15T21:24:41.304Z,19.35
2022-12-15T21:25:44.700Z,18.03
2022-12-15T21:26:50.041Z,18.61
2022-12-15T21:27:54.015Z,18.69
2022-12-15T21:29:01.636Z,18.26
2022-12-15T21:30:08.051Z,18.42
2022-12-15T21:31:11.643Z,16.89
2022-12-15T21:32:14.509Z,19.29
2022-12-15T21:33:18.640Z,19.41
2022-12-15T21:34:23.074Z,20.01
2022-12-15T21:35:30.276Z,18.63
2022-12-15T21:36:31.558Z,17.37
2022-12-15T21:37:34.207Z,17.93
2022-12-15T21:38:40.944Z,17.71
2022-12-15T21:39:44.227Z,17.69
2022-12-15T21:40:48.269Z,18.54
2022-12-15T21:41:52.375Z,20.08
2022-12-15T21:43:02.122Z,17.31
2022-12-15T21:44:13.594Z,18.37
2022-12-15T21:46:34.892Z,17.69
2022-12-15T21:47:57.418Z,17.34
2022-12-15T21:49:15.892Z,21.02
2022-12-15T21:50:20.516Z,19.22
2022-12-15T21:51:26.489Z,19.58
2022-12-15T21:52:28.972Z,18.13
2022-12-15T21:53:32.970Z,17.51
2022-12-15T21:54:37.188Z,20.04
2022-12-15T21:55:40.585Z,17.69
2022-12-15T21:56:47.409Z,18.54
2022-12-15T21:57:51.650Z,20.35
2022-12-15T21:58:57.465Z,18.86
2022-12-15T22:00:03.996Z,18.40
2022-12-15T22:02:29.037Z,19.71
2022-12-15T22:03:34.685Z,19.43
2022-12-15T22:04:39.359Z,20.64
2022-12-15T22:05:42.951Z,18.97
2022-12-15T22:06:50.100Z,21.82
2022-12-15T22:07:51.180Z,21.42
2022-12-15T22:08:58.034Z,23.33
2022-12-15T22:10:01.512Z,21.18
2022-12-15T22:11:08.993Z,20.52
2022-12-15T22:12:24.710Z,21.67
2022-12-15T22:13:31.904Z,19.61
2022-12-15T22:14:37.308Z,20.16
2022-12-15T22:15:41.057Z,21.11
2022-12-15T22:16:46.581Z,22.38
2022-12-15T22:17:54.558Z,22.79
2022-12-15T22:18:58.248Z,22.69
2022-12-15T22:20:02.681Z,19.90
2022-12-15T22:21:08.142Z,23.63
2022-12-15T22:22:14.016Z,21.51
2022-12-15T22:23:27.392Z,20.34
2022-12-15T22:24:30.702Z,21.99
2022-12-15T22:25:34.453Z,20.29
2022-12-15T22:26:41.348Z,18.86
2022-12-15T22:27:46.265Z,20.97
2022-12-15T22:28:51.383Z,19.21
2022-12-15T22:29:58.189Z,21.00
2022-12-15T22:31:05.157Z,19.63
2022-12-15T22:32:14.348Z,20.58
2022-12-15T22:33:22.501Z,21.45
2022-12-15T22:34:27.723Z,20.33
2022-12-15T22:35:33.471Z,24.01
2022-12-15T22:36:36.019Z,18.79
2022-12-15T22:37:42.918Z,20.41
2022-12-15T22:38:46.302Z,19.27
2022-12-15T22:39:49.051Z,22.04
2022-12-15T22:40:56.740Z,19.68
2022-12-15T22:42:00.849Z,22.04
2022-12-15T22:43:06.516Z,23.45
2022-12-15T22:44:24.829Z,22.02
2022-12-15T22:45:28.174Z,22.18
2022-12-15T22:46:32.337Z,20.82
2022-12-15T22:47:38.878Z,23.39
2022-12-15T22:48:45.623Z,22.81
2022-12-15T22:49:49.348Z,23.96
2022-12-15T22:50:53.043Z,22.84
2022-12-15T22:51:58.624Z,22.54
2022-12-15T22:53:02.330Z,22.76
2022-12-15T22:54:12.847Z,22.22
2022-12-15T22:55:18.520Z,25.99
2022-12-15T22:56:28.784Z,22.87
2022-12-15T22:57:33.380Z,22.24
2022-12-15T22:58:43.153Z,22.18
2022-12-15T23:01:00.871Z,20.77
